createdAt,value
2018-11-11T00:01:42.955Z,99.90
2018-11-11T00:04:11.416Z,99.90
2018-11-11T00:06:39.493Z,99.90
2018-11-11T00:09:07.896Z,99.90
2018-11-11T00:11:35.638Z,99.90
2018-11-11T00:14:03.241Z,99.90
2018-11-11T00:16:30.762Z,99.90
2018-11-11T00:18:58.495Z,99.90
2018-11-11T00:21:26.420Z,99.90
2018-11-11T00:23:54.132Z,99.90
2018-11-11T00:26:22.152Z,99.90
2018-11-11T00:28:50.364Z,99.90
2018-11-11T00:31:18.615Z,99.90
2018-11-11T00:33:46.239Z,99.90
2018-11-11T00:36:14.576Z,99.90
2018-11-11T00:38:42.073Z,99.90
2018-11-11T00:41:10.416Z,99.90
2018-11-11T00:43:38.052Z,99.90
2018-11-11T00:46:05.620Z,99.90
2018-11-11T00:48:34.636Z,99.90
2018-11-11T00:51:02.700Z,99.90
2018-11-11T00:53:30.584Z,99.90
2018-11-11T00:55:59.276Z,99.90
2018-11-11T00:58:26.998Z,99.90
2018-11-11T01:00:55.188Z,99.90
2018-11-11T01:03:23.198Z,99.90
2018-11-11T01:05:52.335Z,99.90
2018-11-11T01:08:19.947Z,99.90
2018-11-11T01:10:47.456Z,99.90
2018-11-11T01:13:15.040Z,99.90
2018-11-11T01:15:42.520Z,99.90
2018-11-11T01:18:10.452Z,99.90
2018-11-11T01:20:39.361Z,99.90
2018-11-11T01:23:06.917Z,99.90
2018-11-11T01:25:36.623Z,99.90
2018-11-11T01:28:04.892Z,99.90
2018-11-11T01:30:33.680Z,99.90
2018-11-11T01:33:02.066Z,99.90
2018-11-11T01:35:29.560Z,99.90
2018-11-11T01:37:57.602Z,99.90
2018-11-11T01:40:25.088Z,99.90
2018-11-11T01:42:52.601Z,99.90
2018-11-11T01:45:20.187Z,99.90
2018-11-11T01:47:48.287Z,99.90
2018-11-11T01:50:17.056Z,99.90
2018-11-11T01:52:45.941Z,99.90
2018-11-11T01:55:14.808Z,99.90
2018-11-11T01:57:43.079Z,99.90
2018-11-11T02:00:13.111Z,99.90
2018-11-11T02:02:42.180Z,99.90
2018-11-11T02:05:11.599Z,99.90
2018-11-11T02:07:41.152Z,99.90
2018-11-11T02:10:09.588Z,99.90
2018-11-11T02:12:37.874Z,99.90
2018-11-11T02:15:06.880Z,99.90
2018-11-11T02:17:34.911Z,99.90
2018-11-11T02:20:02.829Z,99.90
2018-11-11T02:22:31.044Z,99.90
2018-11-11T02:24:59.333Z,99.90
2018-11-11T02:27:26.933Z,99.90
2018-11-11T02:29:54.864Z,99.90
2018-11-11T02:32:22.765Z,99.90
2018-11-11T02:34:50.836Z,99.90
2018-11-11T02:37:18.367Z,99.90
2018-11-11T02:39:45.888Z,99.90
2018-11-11T02:42:13.708Z,99.90
2018-11-11T02:44:41.214Z,99.90
2018-11-11T02:47:09.842Z,99.90
2018-11-11T02:49:37.964Z,99.90
2018-11-11T02:52:06.208Z,99.90
2018-11-11T02:54:34.308Z,99.90
2018-11-11T02:57:02.277Z,99.90
2018-11-11T02:59:29.800Z,99.90
2018-11-11T03:01:58.144Z,99.90
2018-11-11T03:04:25.735Z,99.90
2018-11-11T03:06:53.544Z,99.90
2018-11-11T03:09:21.048Z,99.90
2018-11-11T03:11:48.553Z,99.90
2018-11-11T03:14:16.268Z,99.90
2018-11-11T03:16:44.346Z,99.90
2018-11-11T03:19:11.932Z,99.90
2018-11-11T03:21:39.976Z,99.90
2018-11-11T03:24:07.582Z,99.90
2018-11-11T03:26:36.124Z,99.90
2018-11-11T03:29:04.272Z,99.90
2018-11-11T03:31:32.388Z,99.90
2018-11-11T03:34:00.885Z,99.90
2018-11-11T03:36:28.384Z,99.90
2018-11-11T03:38:55.873Z,99.90
2018-11-11T03:41:23.399Z,99.90
2018-11-11T03:43:50.887Z,99.90
2018-11-11T03:46:19.200Z,99.90
2018-11-11T03:48:47.060Z,99.90
2018-11-11T03:51:14.555Z,99.90
2018-11-11T03:53:42.612Z,99.90
2018-11-11T03:56:10.681Z,99.90
2018-11-11T03:58:38.295Z,99.90
2018-11-11T04:01:06.061Z,99.90
2018-11-11T04:03:34.396Z,99.90
2018-11-11T04:06:02.589Z,99.90
2018-11-11T04:08:30.760Z,99.90
2018-11-11T04:10:58.916Z,99.90
2018-11-11T04:13:26.427Z,99.90
2018-11-11T04:15:54.044Z,99.90
2018-11-11T04:18:21.575Z,99.90
2018-11-11T04:20:50.328Z,99.90
2018-11-11T04:23:17.855Z,99.90
2018-11-11T04:25:46.068Z,99.90
2018-11-11T04:28:13.585Z,99.90
2018-11-11T04:30:41.704Z,99.90
2018-11-11T04:33:09.189Z,99.90
2018-11-11T04:35:36.708Z,99.90
2018-11-11T04:38:05.112Z,99.90
2018-11-11T04:40:32.733Z,99.90
2018-11-11T04:43:01.206Z,99.90
2018-11-11T04:45:29.455Z,99.90
2018-11-11T04:47:57.322Z,99.90
2018-11-11T04:50:24.928Z,99.90
2018-11-11T04:52:53.678Z,99.90
2018-11-11T04:55:21.698Z,99.90
2018-11-11T04:57:49.183Z,99.90
2018-11-11T05:00:16.698Z,99.90
2018-11-11T05:02:44.761Z,99.90
2018-11-11T05:05:13.076Z,99.90
2018-11-11T05:07:41.177Z,99.90
2018-11-11T05:10:09.336Z,99.90
2018-11-11T05:12:36.996Z,99.90
2018-11-11T05:15:05.748Z,99.90
2018-11-11T05:17:33.632Z,99.90
2018-11-11T05:20:01.333Z,99.90
2018-11-11T05:22:29.599Z,99.90
2018-11-11T05:24:58.053Z,99.90
2018-11-11T05:27:26.336Z,99.90
2018-11-11T05:29:54.711Z,99.90
2018-11-11T05:32:22.194Z,99.90
2018-11-11T05:34:49.708Z,99.90
2018-11-11T05:37:17.312Z,99.90
2018-11-11T05:39:45.642Z,99.90
2018-11-11T05:42:13.169Z,99.90
2018-11-11T05:44:41.537Z,99.90
2018-11-11T05:47:09.707Z,99.90
2018-11-11T05:49:37.756Z,99.90
2018-11-11T05:52:05.292Z,99.90
2018-11-11T05:54:33.550Z,99.90
2018-11-11T05:57:01.830Z,99.90
2018-11-11T05:59:29.327Z,99.90
2018-11-11T06:01:57.164Z,99.90
2018-11-11T06:04:24.663Z,99.90
2018-11-11T06:06:52.688Z,99.90
2018-11-11T06:09:20.191Z,99.90
2018-11-11T06:11:47.677Z,99.90
2018-11-11T06:14:15.249Z,99.90
2018-11-11T06:16:42.756Z,99.90
2018-11-11T06:19:10.360Z,99.90
2018-11-11T06:21:38.472Z,99.90
2018-11-11T06:24:06.014Z,99.90
2018-11-11T06:26:34.533Z,99.90
2018-11-11T06:29:02.061Z,99.90
2018-11-11T06:31:30.381Z,99.90
2018-11-11T06:33:57.937Z,99.90
2018-11-11T06:36:25.404Z,99.90
2018-11-11T06:38:53.584Z,99.90
2018-11-11T06:41:21.764Z,99.90
2018-11-11T06:43:49.481Z,99.90
2018-11-11T06:46:16.999Z,99.90
2018-11-11T06:48:44.933Z,99.90
2018-11-11T06:51:12.488Z,99.90
2018-11-11T06:53:40.612Z,99.90
2018-11-11T06:56:08.485Z,99.90
2018-11-11T06:58:35.983Z,99.90
2018-11-11T07:01:04.524Z,99.90
2018-11-11T07:03:58.607Z,99.90
2018-11-11T07:06:27.280Z,99.90
2018-11-11T07:08:54.788Z,99.90
2018-11-11T07:11:22.332Z,99.90
2018-11-11T07:13:49.923Z,99.90
2018-11-11T07:16:17.426Z,99.90
2018-11-11T07:18:46.368Z,99.90
2018-11-11T07:21:14.821Z,99.90
2018-11-11T07:23:43.205Z,99.90
2018-11-11T07:26:11.288Z,99.90
2018-11-11T07:28:38.996Z,99.90
2018-11-11T07:31:07.650Z,99.90
2018-11-11T07:33:35.172Z,99.90
2018-11-11T07:36:03.744Z,99.90
2018-11-11T07:38:31.600Z,99.90
2018-11-11T07:40:59.120Z,99.90
2018-11-11T07:43:26.641Z,99.90
2018-11-11T07:45:54.183Z,99.90
2018-11-11T07:48:22.360Z,99.90
2018-11-11T07:50:50.416Z,99.90
2018-11-11T07:53:19.661Z,99.90
2018-11-11T07:55:47.875Z,99.90
2018-11-11T07:58:16.242Z,99.90
2018-11-11T08:00:44.360Z,99.90
2018-11-11T08:03:12.741Z,99.90
2018-11-11T08:05:40.831Z,99.90
2018-11-11T08:08:08.852Z,99.90
2018-11-11T08:10:47.969Z,99.90
2018-11-11T08:13:15.671Z,99.90
2018-11-11T08:15:44.588Z,99.90
2018-11-11T08:18:12.092Z,99.90
2018-11-11T08:20:40.517Z,99.90
2018-11-11T08:23:08.055Z,99.90
2018-11-11T08:25:36.097Z,99.90
2018-11-11T08:28:04.019Z,99.90
2018-11-11T08:30:32.345Z,99.90
2018-11-11T08:33:01.698Z,99.90
2018-11-11T08:35:29.251Z,99.90
2018-11-11T08:37:57.336Z,99.90
2018-11-11T08:40:25.541Z,99.90
2018-11-11T08:42:53.465Z,99.90
2018-11-11T08:45:21.677Z,99.90
2018-11-11T08:47:49.980Z,99.90
2018-11-11T08:50:18.265Z,99.90
2018-11-11T08:52:45.751Z,99.90
2018-11-11T08:55:16.050Z,99.90
2018-11-11T08:57:43.923Z,99.90
2018-11-11T09:00:12.974Z,99.90
2018-11-11T09:02:41.614Z,99.90
2018-11-11T09:05:09.175Z,99.90
2018-11-11T09:07:38.027Z,99.90
2018-11-11T09:10:08.144Z,99.90
2018-11-11T09:12:35.666Z,99.90
2018-11-11T09:15:04.153Z,99.90
2018-11-11T09:17:32.287Z,99.90
2018-11-11T09:19:59.823Z,99.90
2018-11-11T09:22:28.036Z,99.90
2018-11-11T09:24:56.231Z,99.90
2018-11-11T09:27:23.772Z,99.90
2018-11-11T09:29:52.184Z,99.90
2018-11-11T09:32:20.288Z,99.90
2018-11-11T09:34:48.132Z,99.90
2018-11-11T09:37:15.645Z,99.90
2018-11-11T09:39:43.127Z,98.50
2018-11-11T09:42:10.622Z,99.90
2018-11-11T09:44:38.156Z,99.90
2018-11-11T09:47:06.371Z,99.90
2018-11-11T09:49:34.415Z,99.90
2018-11-11T09:52:02.729Z,99.90
2018-11-11T09:54:30.721Z,99.90
2018-11-11T09:56:58.877Z,99.90
2018-11-11T09:59:26.663Z,99.90
2018-11-11T10:01:55.012Z,99.90
2018-11-11T10:04:30.332Z,99.90
2018-11-11T10:07:08.447Z,99.90
2018-11-11T10:09:45.400Z,99.80
2018-11-11T10:12:19.809Z,98.90
2018-11-11T10:14:52.496Z,98.10
2018-11-11T10:17:27.976Z,98.80
2018-11-11T10:20:03.856Z,99.00
2018-11-11T10:22:40.172Z,97.80
2018-11-11T10:26:17.430Z,99.40
2018-11-11T10:28:54.103Z,93.30
2018-11-11T10:31:30.162Z,93.50
2018-11-11T10:34:13.354Z,96.30
2018-11-11T10:36:46.484Z,92.00
2018-11-11T10:40:23.575Z,94.50
2018-11-11T10:42:58.698Z,93.40
2018-11-11T10:45:32.204Z,92.00
2018-11-11T10:48:03.065Z,93.00
2018-11-11T10:50:34.400Z,91.40
2018-11-11T10:53:03.204Z,85.80
2018-11-11T10:55:31.580Z,85.30
2018-11-11T10:57:59.119Z,83.80
2018-11-11T11:00:32.052Z,83.10
2018-11-11T11:03:00.708Z,79.70
2018-11-11T11:05:28.252Z,82.30
2018-11-11T11:07:56.460Z,82.50
2018-11-11T11:10:24.597Z,77.10
2018-11-11T11:12:53.017Z,81.00
2018-11-11T11:15:21.084Z,80.20
2018-11-11T11:17:48.687Z,79.50
2018-11-11T11:20:16.633Z,80.40
2018-11-11T11:22:44.194Z,74.70
2018-11-11T11:25:12.675Z,76.10
2018-11-11T11:27:41.001Z,75.70
2018-11-11T11:30:11.488Z,76.30
2018-11-11T11:32:39.091Z,74.50
2018-11-11T11:35:08.679Z,74.90
2018-11-11T11:37:36.832Z,74.10
2018-11-11T11:40:05.543Z,72.60
2018-11-11T11:42:34.029Z,74.00
2018-11-11T11:45:01.540Z,73.80
2018-11-11T11:47:29.175Z,72.10
2018-11-11T11:49:57.367Z,73.80
2018-11-11T11:52:24.906Z,73.50
2018-11-11T11:54:53.177Z,67.80
2018-11-11T11:57:20.705Z,70.20
2018-11-11T11:59:48.232Z,70.80
2018-11-11T12:02:17.252Z,70.40
2018-11-11T12:04:45.833Z,65.80
2018-11-11T12:07:13.892Z,65.40
2018-11-11T12:09:41.412Z,65.00
2018-11-11T12:12:09.554Z,65.40
2018-11-11T12:14:37.080Z,65.00
2018-11-11T12:17:06.439Z,66.20
2018-11-11T12:19:35.018Z,62.10
2018-11-11T12:22:02.939Z,66.20
2018-11-11T12:24:30.972Z,65.90
2018-11-11T12:26:58.983Z,66.20
2018-11-11T12:29:26.476Z,66.10
2018-11-11T12:31:54.084Z,63.80
2018-11-11T12:34:21.984Z,62.70
2018-11-11T12:36:49.508Z,63.40
2018-11-11T12:39:17.925Z,63.50
2018-11-11T12:41:45.871Z,62.40
2018-11-11T12:44:13.408Z,62.30
2018-11-11T12:46:41.499Z,61.50
2018-11-11T12:49:09.584Z,63.30
2018-11-11T12:51:37.102Z,62.90
2018-11-11T12:54:04.670Z,62.20
2018-11-11T12:56:32.517Z,62.10
2018-11-11T12:59:01.260Z,62.40
2018-11-11T13:01:28.792Z,61.90
2018-11-11T13:03:56.944Z,62.70
2018-11-11T13:06:24.560Z,64.30
2018-11-11T13:08:52.912Z,63.30
2018-11-11T13:11:21.147Z,63.50
2018-11-11T13:13:48.746Z,64.40
2018-11-11T13:17:46.568Z,64.40
2018-11-11T13:20:16.756Z,65.40
2018-11-11T13:22:44.380Z,65.50
2018-11-11T13:25:12.967Z,64.80
2018-11-11T13:27:40.476Z,64.60
2018-11-11T13:30:09.923Z,64.30
2018-11-11T13:32:37.887Z,63.70
2018-11-11T13:35:06.843Z,64.10
2018-11-11T13:37:35.124Z,65.00
2018-11-11T13:40:03.952Z,64.80
2018-11-11T13:42:32.190Z,65.90
2018-11-11T13:45:00.222Z,66.90
2018-11-11T13:47:27.823Z,66.70
2018-11-11T13:49:55.828Z,67.10
2018-11-11T13:52:23.364Z,67.20
2018-11-11T13:54:52.269Z,67.90
2018-11-11T13:57:19.792Z,68.10
2018-11-11T13:59:47.401Z,67.90
2018-11-11T14:02:16.071Z,68.50
2018-11-11T14:04:43.560Z,68.60
2018-11-11T14:07:11.887Z,69.00
2018-11-11T14:09:39.391Z,69.40
2018-11-11T14:12:07.366Z,70.10
2018-11-11T14:14:34.861Z,70.50
2018-11-11T14:17:02.389Z,70.90
2018-11-11T14:19:30.571Z,71.80
2018-11-11T14:21:58.895Z,72.70
2018-11-11T14:24:27.185Z,73.30
2018-11-11T14:26:55.267Z,73.80
2018-11-11T14:29:22.869Z,73.60
2018-11-11T14:31:50.366Z,74.50
2018-11-11T14:34:18.472Z,74.30
2018-11-11T14:36:46.085Z,74.90
2018-11-11T14:39:14.524Z,75.10
2018-11-11T14:41:43.784Z,76.00
2018-11-11T14:44:11.328Z,76.60
2018-11-11T14:46:39.980Z,76.70
2018-11-11T14:49:09.750Z,78.20
2018-11-11T14:51:37.604Z,77.50
2018-11-11T14:54:06.036Z,77.50
2018-11-11T14:56:34.839Z,78.80
2018-11-11T14:59:02.984Z,78.80
2018-11-11T15:01:30.595Z,79.20
2018-11-11T15:03:59.370Z,79.40
2018-11-11T15:06:26.983Z,79.00
2018-11-11T15:08:55.088Z,79.30
2018-11-11T15:11:23.199Z,80.00
2018-11-11T15:13:50.718Z,80.20
2018-11-11T15:16:19.125Z,80.30
2018-11-11T15:18:47.021Z,80.30
2018-11-11T15:21:15.695Z,79.80
2018-11-11T15:23:43.716Z,80.90
2018-11-11T15:26:11.853Z,81.30
2018-11-11T15:28:39.383Z,81.80
2018-11-11T15:31:07.825Z,82.00
2018-11-11T15:33:35.263Z,82.60
2018-11-11T15:36:02.847Z,83.60
2018-11-11T15:38:31.100Z,84.10
2018-11-11T15:40:58.591Z,84.20
2018-11-11T15:43:26.948Z,83.80
2018-11-11T15:45:54.455Z,83.80
2018-11-11T15:48:23.313Z,84.50
2018-11-11T15:50:52.103Z,84.40
2018-11-11T15:53:19.676Z,85.10
2018-11-11T15:55:48.048Z,85.10
2018-11-11T15:58:16.116Z,84.90
2018-11-11T16:00:44.716Z,86.40
2018-11-11T16:03:12.860Z,88.80
2018-11-11T16:05:40.573Z,88.10
2018-11-11T16:08:08.735Z,88.50
2018-11-11T16:10:36.391Z,88.80
2018-11-11T16:13:04.670Z,90.10
2018-11-11T16:15:40.370Z,91.90
2018-11-11T16:18:11.724Z,93.80
2018-11-11T16:20:39.973Z,99.70
2018-11-11T16:23:08.500Z,96.10
2018-11-11T16:25:37.062Z,95.20
2018-11-11T16:28:05.862Z,94.30
2018-11-11T16:30:35.074Z,95.60
2018-11-11T16:33:03.184Z,98.70
2018-11-11T16:35:31.591Z,95.80
2018-11-11T16:37:59.952Z,95.70
2018-11-11T16:40:30.276Z,95.20
2018-11-11T16:42:58.178Z,95.10
2018-11-11T16:45:27.292Z,94.80
2018-11-11T16:47:55.511Z,95.90
2018-11-11T16:50:26.316Z,95.30
2018-11-11T16:52:55.204Z,95.10
2018-11-11T16:55:25.365Z,94.90
2018-11-11T16:57:53.600Z,99.90
2018-11-11T17:00:24.025Z,97.40
2018-11-11T17:02:52.882Z,97.40
2018-11-11T17:05:25.866Z,96.50
2018-11-11T17:07:54.588Z,96.20
2018-11-11T17:10:23.663Z,96.20
2018-11-11T17:12:53.024Z,96.80
2018-11-11T17:15:22.972Z,96.00
2018-11-11T17:17:51.415Z,96.30
2018-11-11T17:20:21.589Z,97.30
2018-11-11T17:22:50.805Z,98.50
2018-11-11T17:25:20.199Z,97.40
2018-11-11T17:27:48.202Z,99.80
2018-11-11T17:30:19.428Z,99.60
2018-11-11T17:32:48.497Z,99.90
2018-11-11T17:35:17.436Z,99.90
2018-11-11T17:37:45.511Z,99.90
2018-11-11T17:40:17.455Z,99.90
2018-11-11T17:42:46.602Z,99.90
2018-11-11T17:45:14.516Z,99.90
2018-11-11T17:47:43.675Z,99.90
2018-11-11T17:50:15.173Z,99.90
2018-11-11T17:52:43.607Z,99.90
2018-11-11T17:55:13.622Z,99.90
2018-11-11T17:57:42.431Z,99.90
2018-11-11T18:00:17.792Z,99.90
2018-11-11T18:02:47.247Z,99.90
2018-11-11T18:05:17.102Z,99.90
2018-11-11T18:07:45.379Z,99.90
2018-11-11T18:10:14.968Z,99.90
2018-11-11T18:12:43.073Z,99.90
2018-11-11T18:15:12.503Z,99.90
2018-11-11T18:17:41.261Z,99.90
2018-11-11T18:20:12.772Z,99.90
2018-11-11T18:22:41.065Z,99.90
2018-11-11T18:25:09.272Z,99.90
2018-11-11T18:27:37.766Z,99.90
2018-11-11T18:30:09.961Z,99.90
2018-11-11T18:32:38.184Z,99.90
2018-11-11T18:35:08.052Z,99.90
2018-11-11T18:37:35.964Z,99.90
2018-11-11T18:40:04.755Z,99.90
2018-11-11T18:42:32.224Z,99.90
2018-11-11T18:45:00.565Z,99.90
2018-11-11T18:47:28.640Z,99.90
2018-11-11T18:49:57.409Z,99.90
2018-11-11T18:52:25.417Z,99.90
2018-11-11T18:54:54.775Z,99.90
2018-11-11T18:57:22.897Z,99.90
2018-11-11T18:59:50.350Z,99.90
2018-11-11T19:02:19.208Z,99.90
2018-11-11T19:04:48.820Z,99.90
2018-11-11T19:07:16.951Z,99.90
2018-11-11T19:09:45.607Z,99.90
2018-11-11T19:12:13.129Z,99.90
2018-11-11T19:14:40.856Z,99.90
2018-11-11T19:17:08.445Z,99.90
2018-11-11T19:19:36.044Z,99.90
2018-11-11T19:22:04.352Z,99.90
2018-11-11T19:24:32.749Z,99.90
2018-11-11T19:27:00.263Z,99.90
2018-11-11T19:29:28.723Z,99.90
2018-11-11T19:31:57.016Z,99.90
2018-11-11T19:34:25.231Z,99.90
2018-11-11T19:36:54.684Z,99.90
2018-11-11T19:39:22.364Z,99.90
2018-11-11T19:41:49.984Z,99.90
2018-11-11T19:44:18.101Z,99.90
2018-11-11T19:46:45.709Z,99.90
2018-11-11T19:49:13.740Z,99.90
2018-11-11T19:51:42.366Z,99.90
2018-11-11T20:00:58.054Z,99.90
2018-11-11T20:03:26.300Z,99.90
2018-11-11T20:05:54.100Z,99.90
2018-11-11T20:08:22.929Z,99.90
2018-11-11T20:10:50.527Z,99.90
2018-11-11T20:13:18.092Z,99.90
2018-11-11T20:15:45.704Z,99.90
2018-11-11T20:19:42.808Z,99.90
2018-11-11T20:22:10.893Z,99.90
2018-11-11T20:24:39.137Z,99.90
2018-11-11T20:27:08.686Z,99.90
2018-11-11T20:29:36.740Z,99.90
2018-11-11T20:32:04.343Z,99.90
2018-11-11T20:34:32.682Z,99.90
2018-11-11T20:37:00.224Z,99.90
2018-11-11T20:39:28.526Z,99.90
2018-11-11T20:41:56.662Z,99.90
2018-11-11T20:44:24.248Z,99.90
2018-11-11T20:46:52.351Z,99.90
2018-11-11T20:49:20.469Z,99.90
2018-11-11T20:51:48.116Z,99.90
2018-11-11T20:54:15.660Z,99.90
2018-11-11T20:56:43.932Z,99.90
2018-11-11T20:59:11.388Z,99.90
2018-11-11T21:01:40.400Z,99.90
2018-11-11T21:04:07.997Z,99.90
2018-11-11T21:06:36.428Z,99.90
2018-11-11T21:09:08.545Z,99.90
2018-11-11T21:11:36.136Z,99.90
2018-11-11T21:14:03.864Z,99.90
2018-11-11T21:16:31.944Z,99.90
2018-11-11T21:18:59.519Z,99.90
2018-11-11T21:21:27.823Z,99.90
2018-11-11T21:23:55.385Z,99.90
2018-11-11T21:26:24.766Z,99.90
2018-11-11T21:28:54.294Z,99.90
2018-11-11T21:31:22.404Z,99.90
2018-11-11T21:33:50.503Z,99.90
2018-11-11T21:36:18.577Z,99.90
2018-11-11T21:38:47.191Z,99.90
2018-11-11T21:41:14.839Z,99.90
2018-11-11T21:43:43.590Z,99.90
2018-11-11T21:46:11.151Z,99.90
2018-11-11T21:48:39.536Z,99.90
2018-11-11T21:51:07.102Z,99.90
2018-11-11T21:53:36.996Z,99.90
2018-11-11T21:56:05.614Z,99.90
2018-11-11T21:58:34.624Z,99.90
2018-11-11T22:01:02.766Z,99.90
2018-11-11T22:03:30.759Z,99.90
2018-11-11T22:06:00.051Z,99.90
2018-11-11T22:08:28.895Z,99.90
2018-11-11T22:10:56.578Z,99.90
2018-11-11T22:13:24.398Z,99.90
2018-11-11T22:15:52.345Z,99.90
2018-11-11T22:18:20.711Z,99.90
2018-11-11T22:20:49.180Z,99.90
2018-11-11T22:23:16.783Z,99.90
2018-11-11T22:25:44.951Z,99.90
2018-11-11T22:28:12.827Z,99.90
2018-11-11T22:30:41.796Z,99.90
2018-11-11T22:33:09.572Z,99.90
2018-11-11T22:35:37.088Z,99.90
2018-11-11T22:38:05.554Z,99.90
2018-11-11T22:40:34.033Z,99.90
2018-11-11T22:43:01.583Z,99.90
2018-11-11T22:45:29.585Z,99.90
2018-11-11T22:47:57.580Z,99.90
2018-11-11T22:50:25.236Z,99.90
2018-11-11T22:52:52.789Z,99.90
2018-11-11T22:55:21.023Z,99.90
2018-11-11T22:57:49.316Z,99.90
2018-11-11T23:00:24.326Z,99.90
2018-11-11T23:02:52.428Z,99.90
2018-11-11T23:05:20.935Z,99.90
2018-11-11T23:07:49.417Z,99.90
2018-11-11T23:10:17.295Z,99.90
2018-11-11T23:12:44.876Z,99.90
2018-11-11T23:15:13.889Z,99.90
2018-11-11T23:17:42.022Z,99.90
2018-11-11T23:20:11.231Z,99.90
2018-11-11T23:22:40.281Z,99.90
2018-11-11T23:25:10.078Z,99.90
2018-11-11T23:27:38.359Z,99.90
2018-11-11T23:30:08.654Z,99.90
2018-11-11T23:32:36.902Z,99.90
2018-11-11T23:35:05.060Z,99.90
2018-11-11T23:37:33.240Z,99.90
2018-11-11T23:40:00.772Z,99.90
2018-11-11T23:42:29.172Z,99.90
2018-11-11T23:44:56.692Z,99.90
2018-11-11T23:47:25.041Z,99.90
2018-11-11T23:49:53.228Z,99.90
2018-11-11T23:52:20.831Z,99.90
2018-11-11T23:54:48.868Z,99.90
2018-11-11T23:57:17.095Z,99.90
2018-11-11T23:59:45.407Z,99.90
